Time;durP1;ratioP1;P1;durP2;ratioP2;P2;SDS_P1;SDS_P2;PMS_P1;PMS_P2;Temp;Humidity;BMP_temperature;BMP_pressure;BME280_temperature;BME280_humidity;BME280_pressure;Samples;Min_cycle;Max_cycle;Signal;HPM_P1;HPM_P2
2022/05/09 00:01:41;;;;;;;1.10;1.00;;;19.90;49.40;;;;;;5056475;28;20557;-91
2022/05/09 00:04:07;;;;;;;1.90;1.50;;;19.90;49.40;;;;;;5056785;28;20184;-91
2022/05/09 00:06:33;;;;;;;1.63;1.23;;;19.80;49.40;;;;;;5056331;28;20276;-91
2022/05/09 00:08:58;;;;;;;1.10;1.00;;;19.80;49.40;;;;;;5057850;28;20461;-91
2022/05/09 00:11:24;;;;;;;1.87;1.50;;;19.80;49.40;;;;;;5058570;28;20214;-91
2022/05/09 00:13:50;;;;;;;1.47;1.20;;;19.80;49.40;;;;;;5058461;28;20243;-91
2022/05/09 00:16:16;;;;;;;1.67;1.30;;;19.80;49.40;;;;;;5058723;28;20557;-90
2022/05/09 00:18:42;;;;;;;2.67;1.30;;;19.80;49.40;;;;;;5058072;28;20223;-90
2022/05/09 00:21:08;;;;;;;1.93;1.20;;;19.80;49.40;;;;;;5058335;28;20197;-90
2022/05/09 00:23:34;;;;;;;1.87;1.20;;;19.80;49.50;;;;;;5057587;28;20478;-90
2022/05/09 00:26:00;;;;;;;1.20;1.10;;;19.80;49.50;;;;;;5056818;28;20178;-90
2022/05/09 00:28:27;;;;;;;1.70;1.20;;;19.80;49.50;;;;;;5057187;28;20579;-90
2022/05/09 00:30:54;;;;;;;1.53;1.20;;;19.70;49.40;;;;;;5058428;28;20176;-90
2022/05/09 00:33:20;;;;;;;3.37;1.17;;;19.70;49.50;;;;;;5058100;28;20175;-90
2022/05/09 00:35:46;;;;;;;1.40;1.27;;;19.70;49.50;;;;;;5057218;28;20172;-90
2022/05/09 00:38:13;;;;;;;1.50;1.10;;;19.70;49.50;;;;;;5057711;28;20178;-90
2022/05/09 00:41:28;;;;;;;1.33;1.20;;;19.70;49.50;;;;;;5057927;28;20183;-90
2022/05/09 00:43:35;;;;;;;2.80;1.20;;;19.70;49.50;;;;;;5074292;28;20178;-90
2022/05/09 00:46:02;;;;;;;1.67;1.23;;;19.70;49.50;;;;;;5056951;28;20198;-90
2022/05/09 00:48:28;;;;;;;1.40;1.10;;;19.60;49.50;;;;;;5057128;28;20218;-90
2022/05/09 00:50:54;;;;;;;1.30;1.20;;;19.60;49.50;;;;;;5055785;28;20275;-91
2022/05/09 00:53:21;;;;;;;1.20;1.10;;;19.60;49.50;;;;;;5056907;28;20177;-91
2022/05/09 00:55:52;;;;;;;1.63;1.27;;;19.60;49.50;;;;;;5056585;28;20637;-92
2022/05/09 00:58:18;;;;;;;1.40;1.13;;;19.60;49.50;;;;;;5055626;28;20175;-91
2022/05/09 01:00:45;;;;;;;1.10;1.00;;;19.60;49.50;;;;;;5057150;28;20177;-91
2022/05/09 01:03:25;;;;;;;1.47;1.20;;;19.60;49.50;;;;;;5055756;28;20175;-91
2022/05/09 01:05:50;;;;;;;1.40;1.00;;;19.60;49.50;;;;;;5056476;28;20171;-91
2022/05/09 01:08:24;;;;;;;1.97;1.17;;;19.60;49.50;;;;;;5056348;28;20202;-91
2022/05/09 01:10:52;;;;;;;2.13;1.37;;;19.60;49.60;;;;;;5054614;28;20185;-91
2022/05/09 01:13:22;;;;;;;1.63;1.23;;;19.50;49.50;;;;;;5055572;28;20189;-91
2022/05/09 01:15:54;;;;;;;1.30;1.20;;;19.50;49.50;;;;;;5057109;28;20274;-90
2022/05/09 01:18:21;;;;;;;1.20;1.00;;;19.50;49.50;;;;;;5057355;28;20342;-91
2022/05/09 01:20:47;;;;;;;1.30;1.20;;;19.50;49.50;;;;;;5058213;28;20274;-91
2022/05/09 01:23:13;;;;;;;1.37;1.10;;;19.50;49.50;;;;;;5058151;28;20211;-89
2022/05/09 01:25:40;;;;;;;1.30;1.20;;;19.50;49.50;;;;;;5057431;28;20503;-89
2022/05/09 01:28:06;;;;;;;1.20;1.10;;;19.50;49.50;;;;;;5057527;28;20199;-89
2022/05/09 01:30:48;;;;;;;1.40;1.30;;;19.50;49.50;;;;;;5056899;28;20638;-89
2022/05/09 01:33:22;;;;;;;1.30;1.20;;;19.50;49.50;;;;;;5057007;28;20213;-89
2022/05/09 01:35:53;;;;;;;1.40;1.30;;;19.40;49.50;;;;;;5056160;28;20174;-89
2022/05/09 01:38:18;;;;;;;1.47;0.90;;;19.40;49.50;;;;;;5057465;28;20242;-89
2022/05/09 01:40:44;;;;;;;1.57;1.30;;;19.40;49.50;;;;;;5057278;28;20283;-89
2022/05/09 01:43:10;;;;;;;1.20;1.10;;;19.40;49.50;;;;;;5058049;28;20179;-89
2022/05/09 01:45:36;;;;;;;1.47;1.30;;;19.40;49.50;;;;;;5058300;28;20227;-89
2022/05/09 01:50:46;;;;;;;1.60;1.10;;;19.40;49.50;;;;;;5075368;28;20165;-89
2022/05/09 01:53:12;;;;;;;1.20;1.10;;;19.40;49.50;;;;;;5056454;28;20173;-89
2022/05/09 01:55:37;;;;;;;1.27;1.17;;;19.30;49.50;;;;;;5057374;28;20168;-89
2022/05/09 01:58:04;;;;;;;1.73;1.30;;;19.30;49.50;;;;;;5060374;28;20264;-89
2022/05/09 02:00:32;;;;;;;1.90;1.30;;;19.30;49.50;;;;;;5061133;28;20202;-89
2022/05/09 02:03:01;;;;;;;1.80;1.17;;;19.30;49.90;;;;;;5061609;28;20182;-89
2022/05/09 02:05:26;;;;;;;1.10;1.00;;;19.30;49.50;;;;;;5061435;28;20186;-89
2022/05/09 02:07:55;;;;;;;1.50;1.20;;;19.30;49.50;;;;;;5061032;28;20208;-89
2022/05/09 02:10:21;;;;;;;1.30;1.00;;;19.30;49.50;;;;;;5061346;28;20171;-91
2022/05/09 02:12:47;;;;;;;1.20;1.10;;;19.30;49.50;;;;;;5060434;28;20194;-92
2022/05/09 02:15:12;;;;;;;1.47;1.20;;;19.30;49.50;;;;;;5060133;28;20174;-91
2022/05/09 02:17:38;;;;;;;1.27;1.17;;;19.20;49.50;;;;;;5060187;28;20193;-91
2022/05/09 02:20:06;;;;;;;1.00;0.90;;;19.20;49.50;;;;;;5059877;28;20175;-91
2022/05/09 02:22:32;;;;;;;1.40;1.13;;;19.20;49.50;;;;;;5059755;28;20186;-91
2022/05/09 02:24:58;;;;;;;1.10;1.00;;;19.20;49.40;;;;;;5060349;28;20256;-91
2022/05/09 02:27:24;;;;;;;1.17;0.97;;;19.20;49.50;;;;;;5059997;28;20213;-91
2022/05/09 02:29:50;;;;;;;1.13;1.00;;;19.20;49.50;;;;;;5060225;28;20672;-91
2022/05/09 02:32:16;;;;;;;1.37;1.10;;;19.20;49.50;;;;;;5060392;28;20322;-91
2022/05/09 02:34:42;;;;;;;2.47;1.30;;;19.20;49.50;;;;;;5060177;28;20458;-91
2022/05/09 02:37:08;;;;;;;1.17;1.07;;;19.20;49.50;;;;;;5059526;28;20439;-91
2022/05/09 02:39:34;;;;;;;2.00;1.20;;;19.20;49.50;;;;;;5057927;28;20247;-91
2022/05/09 02:42:00;;;;;;;1.23;1.03;;;19.20;49.50;;;;;;5058875;28;20508;-91
2022/05/09 02:44:27;;;;;;;1.23;1.13;;;19.10;49.40;;;;;;5058802;28;20285;-91
2022/05/09 02:46:54;;;;;;;1.20;1.10;;;19.10;49.50;;;;;;5059892;28;20209;-91
2022/05/09 02:49:20;;;;;;;1.27;1.17;;;19.10;49.50;;;;;;5059993;28;20178;-91
2022/05/09 02:51:48;;;;;;;1.70;1.37;;;19.10;49.50;;;;;;5060352;28;20179;-89
2022/05/09 02:54:14;;;;;;;1.47;1.20;;;19.10;49.50;;;;;;5059642;28;20179;-89
2022/05/09 02:56:40;;;;;;;1.87;0.90;;;19.10;49.50;;;;;;5059441;28;20168;-89
2022/05/09 02:59:05;;;;;;;1.27;1.17;;;19.10;49.50;;;;;;5059737;28;20249;-89
2022/05/09 03:01:31;;;;;;;1.23;1.10;;;19.10;49.40;;;;;;5057489;28;20294;-89
2022/05/09 03:06:41;;;;;;;1.30;1.20;;;19.10;49.40;;;;;;5076258;28;20204;-89
2022/05/09 03:09:07;;;;;;;1.63;1.20;;;19.00;49.40;;;;;;5059304;28;20263;-89
2022/05/09 03:11:33;;;;;;;1.20;1.10;;;19.00;49.40;;;;;;5058990;28;20249;-89
2022/05/09 03:13:58;;;;;;;1.30;1.10;;;19.00;49.40;;;;;;5058831;28;20182;-89
2022/05/09 03:16:24;;;;;;;1.10;1.00;;;19.00;49.40;;;;;;5058998;28;20181;-89
2022/05/09 03:18:51;;;;;;;1.10;1.00;;;19.00;49.40;;;;;;5059442;28;20206;-89
2022/05/09 03:21:17;;;;;;;1.33;1.20;;;19.00;49.40;;;;;;5058834;28;20265;-89
2022/05/09 03:23:43;;;;;;;1.63;1.30;;;19.00;49.40;;;;;;5058151;28;20277;-90
2022/05/09 03:26:08;;;;;;;1.30;1.17;;;18.90;49.40;;;;;;5057291;28;20558;-90
2022/05/09 03:28:34;;;;;;;1.13;1.03;;;18.90;49.40;;;;;;5057807;28;20555;-90
2022/05/09 03:31:00;;;;;;;1.37;1.27;;;18.90;49.40;;;;;;5058196;28;20266;-89
2022/05/09 03:33:27;;;;;;;1.33;1.20;;;18.90;49.40;;;;;;5058139;28;20274;-90
2022/05/09 03:35:54;;;;;;;1.40;1.17;;;18.90;49.40;;;;;;5059201;28;20558;-90
2022/05/09 03:38:21;;;;;;;1.27;1.17;;;19.00;49.40;;;;;;5075764;28;20205;-90
2022/05/09 03:40:47;;;;;;;1.37;1.23;;;18.90;49.40;;;;;;5058871;28;20173;-90
2022/05/09 03:43:12;;;;;;;1.30;1.20;;;18.90;49.40;;;;;;5075250;28;20234;-90
2022/05/09 03:45:41;;;;;;;1.10;0.97;;;18.90;49.40;;;;;;5057099;28;20403;-90
2022/05/09 03:48:08;;;;;;;1.10;1.00;;;18.90;49.40;;;;;;5074625;28;20272;-90
2022/05/09 03:50:34;;;;;;;1.40;1.30;;;18.90;49.40;;;;;;5074705;28;20225;-90
2022/05/09 03:52:59;;;;;;;1.10;1.00;;;18.90;49.40;;;;;;5058001;28;20167;-90
2022/05/09 03:55:25;;;;;;;1.30;1.20;;;18.80;49.30;;;;;;5057101;28;20188;-90
2022/05/09 03:57:53;;;;;;;1.10;1.00;;;18.90;49.40;;;;;;5058104;28;20244;-91
2022/05/09 04:00:21;;;;;;;1.27;0.90;;;18.90;49.40;;;;;;5057385;28;20179;-91
2022/05/09 04:02:47;;;;;;;1.23;1.13;;;18.80;49.30;;;;;;5057146;28;20171;-91
2022/05/09 04:05:17;;;;;;;2.67;1.20;;;18.80;49.40;;;;;;5056369;28;20186;-91
2022/05/09 04:07:50;;;;;;;1.53;1.20;;;18.80;49.30;;;;;;5055671;28;20218;-92
2022/05/09 04:10:19;;;;;;;1.20;1.10;;;18.80;49.30;;;;;;5056423;28;20175;-91
2022/05/09 04:12:46;;;;;;;1.60;1.30;;;18.80;49.30;;;;;;5055308;28;20183;-91
2022/05/09 04:17:57;;;;;;;1.63;1.13;;;18.80;49.30;;;;;;5074594;28;20245;-91
2022/05/09 04:20:24;;;;;;;1.20;1.10;;;18.80;49.30;;;;;;5056403;28;20217;-91
2022/05/09 04:22:51;;;;;;;1.50;1.20;;;18.80;49.30;;;;;;5057011;28;20225;-91
2022/05/09 04:25:19;;;;;;;1.43;1.10;;;18.80;49.30;;;;;;5056708;28;20174;-91
2022/05/09 04:27:45;;;;;;;1.97;1.20;;;18.80;49.30;;;;;;5056746;28;20199;-91
2022/05/09 04:30:12;;;;;;;1.37;1.20;;;18.80;49.30;;;;;;5055555;28;20176;-89
2022/05/09 04:32:39;;;;;;;2.07;1.23;;;18.80;49.30;;;;;;5054481;28;20191;-89
2022/05/09 04:35:05;;;;;;;1.33;1.07;;;18.80;49.20;;;;;;5053537;28;20667;-89
2022/05/09 04:37:34;;;;;;;1.70;1.20;;;18.80;49.20;;;;;;5055503;28;20171;-89
2022/05/09 04:40:00;;;;;;;1.83;1.30;;;18.80;49.20;;;;;;5071934;28;20168;-89
2022/05/09 04:42:25;;;;;;;1.73;1.30;;;18.80;49.20;;;;;;5055660;28;20183;-88
2022/05/09 04:44:51;;;;;;;1.17;1.07;;;18.80;49.20;;;;;;5055062;28;20236;-89
2022/05/09 04:47:17;;;;;;;1.30;1.20;;;18.90;49.20;;;;;;5054950;28;20203;-89
2022/05/09 04:49:42;;;;;;;1.27;1.17;;;18.90;49.20;;;;;;5055196;28;20185;-89
2022/05/09 04:52:08;;;;;;;1.20;1.10;;;18.90;49.20;;;;;;5054495;28;20544;-89
2022/05/09 04:54:34;;;;;;;1.37;1.10;;;18.90;49.10;;;;;;5053277;28;20469;-88
2022/05/09 04:57:00;;;;;;;1.77;1.40;;;18.90;49.10;;;;;;5053271;28;20172;-89
2022/05/09 04:59:25;;;;;;;1.70;1.10;;;18.90;49.10;;;;;;5052700;28;20184;-89
2022/05/09 05:01:51;;;;;;;1.63;1.23;;;19.00;49.10;;;;;;5054787;28;20195;-90
2022/05/09 05:04:17;;;;;;;1.53;1.40;;;19.00;49.00;;;;;;5054067;28;20172;-91
2022/05/09 05:06:44;;;;;;;1.27;1.07;;;19.00;49.00;;;;;;5052433;28;20196;-90
2022/05/09 05:09:10;;;;;;;1.37;1.10;;;19.00;49.00;;;;;;5054175;28;20172;-90
2022/05/09 05:11:37;;;;;;;1.20;1.10;;;19.00;49.00;;;;;;5052838;28;20414;-90
2022/05/09 05:14:03;;;;;;;1.20;1.10;;;19.00;49.00;;;;;;5052994;28;20472;-90
2022/05/09 05:19:24;;;;;;;1.20;1.10;;;19.10;49.00;;;;;;5044419;28;20498;-91
2022/05/09 05:21:49;;;;;;;1.17;1.00;;;19.10;48.90;;;;;;5051336;28;20181;-91
2022/05/09 05:24:15;;;;;;;1.40;1.30;;;19.10;48.90;;;;;;5052302;28;20186;-90
2022/05/09 05:26:41;;;;;;;2.33;1.50;;;19.10;48.90;;;;;;5050868;28;20213;-90
2022/05/09 05:29:07;;;;;;;1.73;1.27;;;19.10;48.80;;;;;;5051452;28;20171;-90
2022/05/09 05:31:32;;;;;;;1.43;1.20;;;19.10;48.90;;;;;;5053302;28;20412;-90
2022/05/09 05:33:58;;;;;;;2.27;1.30;;;19.10;48.80;;;;;;5055768;28;20180;-91
2022/05/09 05:36:24;;;;;;;4.43;1.53;;;19.20;48.90;;;;;;5055266;28;20215;-90
2022/05/09 05:38:51;;;;;;;1.20;1.10;;;19.20;48.80;;;;;;5053162;28;20444;-90
2022/05/09 05:41:18;;;;;;;2.47;1.30;;;19.30;48.90;;;;;;5051735;28;20175;-91
2022/05/09 05:43:44;;;;;;;1.50;1.10;;;19.30;48.80;;;;;;5053576;28;20500;-90
2022/05/09 05:46:11;;;;;;;1.40;1.30;;;19.40;48.90;;;;;;5053747;28;20195;-90
2022/05/09 05:48:38;;;;;;;1.67;1.30;;;19.40;48.90;;;;;;5054429;28;20245;-90
2022/05/09 05:51:04;;;;;;;1.80;1.33;;;19.40;48.90;;;;;;5054227;28;20206;-90
2022/05/09 05:53:29;;;;;;;1.87;1.30;;;19.50;48.90;;;;;;5054796;28;20229;-90
2022/05/09 05:55:55;;;;;;;1.73;1.20;;;19.60;48.90;;;;;;5054511;28;20178;-90
2022/05/09 05:58:23;;;;;;;1.30;1.20;;;19.60;48.80;;;;;;5052918;28;20397;-91
2022/05/09 06:00:49;;;;;;;2.43;1.40;;;19.60;48.70;;;;;;5053384;28;20257;-91
2022/05/09 06:03:15;;;;;;;2.17;1.50;;;19.70;48.60;;;;;;5052510;28;20665;-91
2022/05/09 06:05:41;;;;;;;2.97;1.50;;;19.70;48.50;;;;;;5052448;28;20229;-91
2022/05/09 06:08:08;;;;;;;2.27;1.43;;;19.80;48.60;;;;;;5055043;28;20213;-91
2022/05/09 06:10:34;;;;;;;3.17;1.53;;;19.80;48.60;;;;;;5053586;28;20171;-91
2022/05/09 06:13:04;;;;;;;2.23;1.53;;;19.90;48.60;;;;;;5053044;28;20582;-91
2022/05/09 06:15:33;;;;;;;1.83;1.30;;;19.90;48.70;;;;;;5052027;28;20650;-91
2022/05/09 06:18:03;;;;;;;2.50;1.57;;;20.00;48.60;;;;;;5054422;28;20432;-91
2022/05/09 06:20:31;;;;;;;1.50;1.40;;;20.00;48.60;;;;;;5054408;28;20199;-91
2022/05/09 06:22:59;;;;;;;1.83;1.60;;;20.10;48.50;;;;;;5052807;28;20171;-90
2022/05/09 06:25:26;;;;;;;2.90;1.67;;;20.20;48.50;;;;;;5052179;28;20448;-91
2022/05/09 06:27:53;;;;;;;1.87;1.50;;;20.20;48.40;;;;;;5050587;28;20273;-91
2022/05/09 06:30:20;;;;;;;2.30;1.47;;;20.30;48.50;;;;;;5051738;28;20395;-91
2022/05/09 06:32:47;;;;;;;2.97;1.70;;;20.30;48.40;;;;;;5053289;28;20170;-91
2022/05/09 06:35:23;;;;;;;2.93;1.67;;;20.40;48.20;;;;;;5053649;28;20274;-91
2022/05/09 06:37:50;;;;;;;4.00;1.70;;;20.40;48.60;;;;;;5052251;28;20167;-91
2022/05/09 06:40:17;;;;;;;3.80;1.90;;;20.50;48.20;;;;;;5052774;28;20647;-91
2022/05/09 06:42:44;;;;;;;3.63;1.70;;;20.50;48.20;;;;;;5051443;28;20154;-92
2022/05/09 06:45:10;;;;;;;1.90;1.70;;;20.60;47.90;;;;;;5051916;28;20174;-91
2022/05/09 06:47:44;;;;;;;2.57;1.60;;;20.70;48.00;;;;;;5051992;28;20449;-91
2022/05/09 06:50:10;;;;;;;2.70;2.00;;;20.80;47.80;;;;;;5051275;28;20169;-92
2022/05/09 06:52:36;;;;;;;2.57;1.90;;;21.00;47.60;;;;;;5050956;28;20178;-91
2022/05/09 06:55:02;;;;;;;2.03;1.80;;;21.30;47.20;;;;;;5052044;28;20168;-92
2022/05/09 06:57:28;;;;;;;3.47;2.00;;;21.60;46.80;;;;;;5051880;28;20189;-91
2022/05/09 06:59:54;;;;;;;4.50;2.33;;;21.80;46.50;;;;;;5052027;28;20188;-91
2022/05/09 07:02:19;;;;;;;4.70;2.97;;;22.00;47.10;;;;;;5052780;28;20182;-91
2022/05/09 07:04:46;;;;;;;13.00;2.50;;;22.30;48.10;;;;;;5053725;28;20171;-91
2022/05/09 07:07:12;;;;;;;7.37;2.70;;;22.40;47.90;;;;;;5050799;28;20470;-92
2022/05/09 07:09:39;;;;;;;5.00;2.13;;;22.60;47.70;;;;;;5051184;28;20172;-92
2022/05/09 07:12:06;;;;;;;4.60;2.30;;;22.60;47.40;;;;;;5051139;28;20220;-91
2022/05/09 07:14:32;;;;;;;6.37;2.10;;;22.70;47.40;;;;;;5068709;28;20254;-92
2022/05/09 07:16:57;;;;;;;5.03;2.40;;;22.70;47.70;;;;;;5051590;28;20255;-92
2022/05/09 07:19:23;;;;;;;7.30;2.57;;;22.80;47.10;;;;;;5052531;28;20167;-92
2022/05/09 07:21:49;;;;;;;5.33;2.40;;;22.80;46.90;;;;;;5051473;28;20198;-92
2022/05/09 07:24:14;;;;;;;6.30;2.60;;;22.90;46.70;;;;;;5049920;28;20199;-92
2022/05/09 07:26:41;;;;;;;6.33;2.67;;;22.90;46.50;;;;;;5051136;28;20167;-92
2022/05/09 07:29:09;;;;;;;3.97;2.40;;;23.00;46.40;;;;;;5069701;28;20439;-92
2022/05/09 07:31:34;;;;;;;5.47;2.50;;;23.10;46.30;;;;;;5049817;28;20179;-92
2022/05/09 07:34:00;;;;;;;6.33;2.43;;;23.10;46.10;;;;;;5048873;28;20230;-92
2022/05/09 07:36:27;;;;;;;6.33;2.50;;;23.20;46.10;;;;;;5049220;28;20164;-92
2022/05/09 07:38:52;;;;;;;6.78;2.50;;;23.30;46.00;;;;;;5050855;28;20175;-91
2022/05/09 07:41:19;;;;;;;4.97;2.43;;;23.30;46.00;;;;;;5051060;28;20439;-92
2022/05/09 07:43:44;;;;;;;5.07;2.53;;;23.40;45.80;;;;;;5052170;28;20179;-92
2022/05/09 07:46:10;;;;;;;8.00;2.55;;;23.50;45.70;;;;;;5050791;28;20194;-92
2022/05/09 07:48:38;;;;;;;6.90;2.20;;;23.50;45.60;;;;;;5051389;28;20199;-92
2022/05/09 07:51:04;;;;;;;5.50;2.30;;;23.60;45.50;;;;;;5051801;28;20172;-89
2022/05/09 07:53:32;;;;;;;5.00;2.33;;;23.70;45.40;;;;;;5049728;28;20624;-89
2022/05/09 07:56:00;;;;;;;5.15;2.15;;;23.70;45.30;;;;;;5050028;28;20191;-89
2022/05/09 07:58:27;;;;;;;7.53;2.40;;;23.80;45.20;;;;;;5050610;28;20215;-89
2022/05/09 08:00:58;;;;;;;4.57;2.25;;;23.90;45.10;;;;;;5050732;28;20476;-89
2022/05/09 08:03:25;;;;;;;4.63;2.40;;;24.00;45.10;;;;;;5049980;28;20179;-91
2022/05/09 08:05:51;;;;;;;5.30;2.35;;;24.10;45.00;;;;;;5051779;28;20171;-90
2022/05/09 08:08:17;;;;;;;9.15;2.42;;;24.10;44.90;;;;;;5049384;28;20210;-89
2022/05/09 08:10:43;;;;;;;3.53;2.40;;;24.20;44.90;;;;;;5049772;28;20178;-90
2022/05/09 08:13:11;;;;;;;3.67;2.40;;;24.20;44.80;;;;;;5051928;28;20183;-89
2022/05/09 08:15:37;;;;;;;6.28;2.40;;;24.30;44.70;;;;;;5049744;28;20183;-90
2022/05/09 08:18:03;;;;;;;5.10;2.35;;;24.40;44.70;;;;;;5048298;28;20168;-90
2022/05/09 08:20:32;;;;;;;5.13;2.25;;;24.50;44.60;;;;;;5049274;28;20482;-90
2022/05/09 08:23:10;;;;;;;4.95;2.38;;;24.50;44.60;;;;;;5049188;28;20167;-92
2022/05/09 08:25:38;;;;;;;3.13;2.28;;;24.60;44.50;;;;;;5050655;28;20183;-92
2022/05/09 08:28:05;;;;;;;4.13;2.38;;;24.70;44.40;;;;;;5049463;28;20207;-92
2022/05/09 08:30:34;;;;;;;4.80;2.38;;;24.70;44.40;;;;;;5067196;28;20175;-91
2022/05/09 08:33:52;;;;;;;4.80;2.33;;;24.80;44.30;;;;;;5068286;28;20191;-92
2022/05/09 08:39:05;;;;;;;4.30;2.40;;;25.00;44.20;;;;;;5068747;28;20178;-92
2022/05/09 08:41:39;;;;;;;5.32;2.70;;;25.10;44.10;;;;;;5055871;28;20324;-92
2022/05/09 08:44:20;;;;;;;4.22;2.22;;;25.10;44.10;;;;;;5056184;28;20810;-92
2022/05/09 08:47:17;;;;;;;4.60;2.10;;;25.20;44.10;;;;;;5053932;28;20176;-92
2022/05/09 08:50:07;;;;;;;3.10;2.00;;;25.30;44.10;;;;;;5068650;28;20258;-92
2022/05/09 08:52:47;;;;;;;3.45;2.25;;;25.40;44.00;;;;;;5050687;28;20171;-92
2022/05/09 08:55:14;;;;;;;3.90;2.20;;;25.50;44.00;;;;;;5050338;28;20175;-92
2022/05/09 08:57:45;;;;;;;2.65;2.00;;;25.50;43.90;;;;;;5050119;28;20310;-92
2022/05/09 09:00:29;;;;;;;5.03;2.33;;;25.60;43.90;;;;;;5050558;28;20424;-92
2022/05/09 09:03:28;;;;;;;2.75;2.05;;;25.70;44.00;;;;;;5048015;28;20187;-92
2022/05/09 09:05:57;;;;;;;3.88;2.28;;;25.70;43.90;;;;;;5069062;28;20179;-92
2022/05/09 09:09:17;;;;;;;3.00;2.05;;;25.80;43.90;;;;;;5052537;28;20245;-92
2022/05/09 09:12:17;;;;;;;2.95;2.08;;;25.70;43.80;;;;;;4972480;28;20186;-92
2022/05/09 09:15:05;;;;;;;2.17;1.83;;;25.70;43.90;;;;;;5053156;28;20282;-91
2022/05/09 09:17:50;;;;;;;2.58;2.00;;;25.70;44.00;;;;;;5052957;28;20394;-92
2022/05/09 09:20:22;;;;;;;3.00;1.90;;;25.60;44.10;;;;;;5052585;28;20270;-92
2022/05/09 09:23:22;;;;;;;4.80;1.90;;;25.40;44.20;;;;;;5052200;28;20184;-92
2022/05/09 09:26:20;;;;;;;2.97;2.28;;;25.20;44.30;;;;;;5036629;28;20436;-92
2022/05/09 09:29:10;;;;;;;3.08;2.17;;;25.00;44.50;;;;;;5053215;28;20719;-90
2022/05/09 09:31:41;;;;;;;2.25;1.83;;;24.80;44.90;;;;;;5051421;28;20174;-91
2022/05/09 09:34:37;;;;;;;2.38;1.95;;;24.70;45.10;;;;;;5052795;28;20195;-91
2022/05/09 09:37:33;;;;;;;3.42;2.08;;;24.50;45.40;;;;;;5052922;28;20548;-90
2022/05/09 09:39:59;;;;;;;2.88;2.03;;;24.40;45.70;;;;;;5043313;28;20263;-91
2022/05/09 09:42:25;;;;;;;3.72;2.30;;;24.30;45.90;;;;;;5052885;28;20171;-90
2022/05/09 09:44:53;;;;;;;2.63;1.98;;;24.20;46.00;;;;;;5053296;28;20210;-90
2022/05/09 09:47:18;;;;;;;2.47;1.90;;;24.20;46.10;;;;;;5051418;28;20513;-91
2022/05/09 09:49:48;;;;;;;3.58;2.15;;;24.10;46.20;;;;;;5050679;28;20249;-91
2022/05/09 09:52:26;;;;;;;4.03;1.90;;;24.10;46.30;;;;;;5051128;28;20221;-90
2022/05/09 09:54:57;;;;;;;3.47;2.00;;;24.10;46.40;;;;;;5053394;28;20561;-90
2022/05/09 09:57:29;;;;;;;2.08;1.70;;;24.10;46.40;;;;;;5054026;28;20179;-88
2022/05/09 09:59:56;;;;;;;2.72;2.00;;;24.10;46.50;;;;;;5053141;28;20468;-88
2022/05/09 10:02:27;;;;;;;3.08;2.30;;;24.10;46.50;;;;;;5070074;28;20456;-88
2022/05/09 10:05:08;;;;;;;2.83;2.00;;;24.10;46.60;;;;;;5053959;28;20171;-87
2022/05/09 10:07:34;;;;;;;3.00;2.13;;;24.10;46.90;;;;;;5053174;28;20210;-88
2022/05/09 10:10:20;;;;;;;2.15;1.95;;;24.10;46.70;;;;;;5051190;28;20177;-88
2022/05/09 10:12:49;;;;;;;3.33;2.00;;;24.20;46.80;;;;;;5051005;28;20213;-88
2022/05/09 10:15:34;;;;;;;2.03;1.83;;;24.20;46.90;;;;;;5050608;28;20178;-88
2022/05/09 10:18:18;;;;;;;2.88;2.00;;;24.20;46.90;;;;;;5052236;28;20171;-88
2022/05/09 10:20:44;;;;;;;2.55;1.83;;;24.20;46.90;;;;;;5051488;28;20343;-88
2022/05/09 10:26:13;;;;;;;2.53;1.88;;;24.20;47.00;;;;;;5069886;28;20682;-88
2022/05/09 10:28:48;;;;;;;2.42;1.92;;;24.20;47.00;;;;;;5052771;28;20198;-87
2022/05/09 10:31:28;;;;;;;3.25;1.90;;;24.30;47.10;;;;;;5052952;28;20181;-89
2022/05/09 10:34:01;;;;;;;2.10;1.90;;;24.30;47.10;;;;;;5067981;28;20160;-88
2022/05/09 10:36:47;;;;;;;3.00;1.93;;;24.30;47.20;;;;;;5051843;28;20167;-89
2022/05/09 10:39:40;;;;;;;3.07;1.87;;;24.30;47.20;;;;;;5051444;28;20199;-89
2022/05/09 10:42:10;;;;;;;3.27;2.10;;;24.30;47.20;;;;;;5052267;28;20453;-89
2022/05/09 10:45:02;;;;;;;3.40;2.00;;;24.30;47.30;;;;;;5052704;28;20168;-89
2022/05/09 10:48:01;;;;;;;2.73;2.10;;;24.40;47.40;;;;;;5053203;28;20590;-89
2022/05/09 10:50:44;;;;;;;2.33;1.83;;;24.40;47.40;;;;;;5052625;28;20167;-89
2022/05/09 10:53:35;;;;;;;3.73;2.10;;;24.40;47.50;;;;;;5051863;28;20175;-91
2022/05/09 10:56:19;;;;;;;2.87;2.17;;;24.40;47.50;;;;;;5071807;28;20160;-91
2022/05/09 10:59:08;;;;;;;2.83;1.80;;;24.40;47.60;;;;;;5057647;28;20187;-91
2022/05/09 11:01:45;;;;;;;2.77;2.07;;;24.40;47.70;;;;;;5053880;28;20174;-91
2022/05/09 11:04:13;;;;;;;4.77;2.20;;;24.40;47.70;;;;;;5051543;28;20267;-91
2022/05/09 11:06:55;;;;;;;3.93;2.10;;;24.40;47.70;;;;;;5050168;28;20175;-91
2022/05/09 11:10:08;;;;;;;5.07;2.10;;;24.40;47.80;;;;;;5052259;28;20679;-91
2022/05/09 11:13:04;;;;;;;3.63;2.07;;;24.40;47.80;;;;;;5041977;28;20387;-91
2022/05/09 11:15:58;;;;;;;3.23;1.90;;;24.50;47.90;;;;;;5051892;28;20436;-91
2022/05/09 11:18:40;;;;;;;2.67;2.03;;;24.50;47.90;;;;;;5066161;28;20577;-91
2022/05/09 11:21:40;;;;;;;2.43;1.97;;;24.50;47.90;;;;;;5066356;28;20164;-91
2022/05/09 11:24:36;;;;;;;2.63;2.03;;;24.50;47.90;;;;;;5049343;28;20309;-91
2022/05/09 11:27:21;;;;;;;2.77;1.90;;;24.50;48.00;;;;;;5050670;28;20276;-90
2022/05/09 11:30:17;;;;;;;2.47;1.80;;;24.50;48.00;;;;;;5049894;28;20167;-91
2022/05/09 11:32:43;;;;;;;3.70;2.00;;;24.50;48.10;;;;;;5056664;28;20258;-91
2022/05/09 11:35:30;;;;;;;3.00;1.90;;;24.60;48.10;;;;;;5056713;28;20486;-90
2022/05/09 11:38:16;;;;;;;3.60;2.33;;;24.60;48.20;;;;;;5056987;28;20179;-90
2022/05/09 11:41:01;;;;;;;1.80;1.70;;;24.60;48.20;;;;;;5056350;28;20448;-91
2022/05/09 11:43:57;;;;;;;2.23;1.90;;;24.60;48.20;;;;;;5072734;28;20160;-92
2022/05/09 11:46:47;;;;;;;2.60;1.90;;;24.60;48.20;;;;;;5056587;28;20187;-92
2022/05/09 11:49:30;;;;;;;1.93;1.60;;;24.60;48.60;;;;;;5057141;28;20298;-92
2022/05/09 11:52:01;;;;;;;2.23;2.00;;;24.60;48.20;;;;;;5052189;28;20164;-92
2022/05/09 11:54:41;;;;;;;2.77;2.20;;;24.60;48.30;;;;;;5050868;28;20163;-92
2022/05/09 11:57:30;;;;;;;2.30;1.87;;;24.70;48.40;;;;;;5050552;28;20436;-92
2022/05/09 11:59:59;;;;;;;2.73;1.73;;;24.70;48.40;;;;;;5050860;28;20274;-92
2022/05/09 12:02:55;;;;;;;2.40;1.70;;;24.70;48.40;;;;;;5050021;28;20278;-92
2022/05/09 12:05:27;;;;;;;3.43;1.70;;;24.70;48.40;;;;;;5065694;28;20170;-92
2022/05/09 12:08:05;;;;;;;2.43;2.00;;;24.70;48.50;;;;;;5049596;28;20207;-92
2022/05/09 12:10:38;;;;;;;2.90;1.93;;;24.70;48.50;;;;;;5049446;28;20171;-92
2022/05/09 12:13:14;;;;;;;2.17;1.97;;;24.70;48.40;;;;;;5049541;28;20339;-92
2022/05/09 12:15:48;;;;;;;3.30;1.93;;;24.80;48.50;;;;;;5048081;28;20614;-90
2022/05/09 12:18:45;;;;;;;1.73;1.63;;;24.80;48.60;;;;;;5049513;28;20166;-90
2022/05/09 12:21:31;;;;;;;2.73;1.90;;;24.80;48.70;;;;;;5036735;28;20278;-91
2022/05/09 12:24:18;;;;;;;2.50;1.90;;;24.80;48.70;;;;;;5050436;28;20182;-90
2022/05/09 12:26:53;;;;;;;2.27;1.80;;;24.80;48.70;;;;;;5065411;28;20168;-91
2022/05/09 12:29:19;;;;;;;1.90;1.80;;;24.80;48.70;;;;;;5048876;28;20558;-91
2022/05/09 12:31:46;;;;;;;2.23;1.80;;;24.80;48.70;;;;;;5048952;28;20238;-91
2022/05/09 12:34:15;;;;;;;2.67;2.00;;;24.80;48.80;;;;;;5049549;28;20449;-91
2022/05/09 12:36:44;;;;;;;2.13;1.90;;;24.80;48.80;;;;;;5049556;28;20203;-91
2022/05/09 12:39:18;;;;;;;2.57;1.80;;;24.90;48.90;;;;;;5049923;28;20172;-91
2022/05/09 12:41:53;;;;;;;2.83;2.00;;;24.80;48.80;;;;;;5049532;28;20274;-90
2022/05/09 12:44:21;;;;;;;1.90;1.70;;;24.90;49.00;;;;;;5050144;28;20167;-91
2022/05/09 12:46:56;;;;;;;2.50;2.00;;;24.90;48.90;;;;;;5048534;28;20262;-91
2022/05/09 12:49:33;;;;;;;2.47;1.90;;;24.90;49.00;;;;;;5048007;28;20167;-91
2022/05/09 12:51:59;;;;;;;2.20;2.00;;;24.90;49.00;;;;;;5048776;28;20435;-91
2022/05/09 12:54:28;;;;;;;2.33;1.83;;;24.90;49.00;;;;;;5048568;28;20195;-91
2022/05/09 12:56:59;;;;;;;2.40;2.17;;;24.90;49.00;;;;;;5049398;28;20167;-91
2022/05/09 12:59:27;;;;;;;2.03;1.83;;;24.90;49.10;;;;;;5049059;28;20264;-92
2022/05/09 13:02:03;;;;;;;1.90;1.70;;;24.90;49.10;;;;;;5049616;28;20171;-91
2022/05/09 13:04:32;;;;;;;2.03;1.83;;;25.00;49.20;;;;;;5048634;28;20550;-91
2022/05/09 13:07:05;;;;;;;3.00;2.20;;;24.90;49.10;;;;;;5047376;28;20164;-91
2022/05/09 13:09:34;;;;;;;2.40;2.00;;;24.90;49.20;;;;;;5049653;28;20180;-91
2022/05/09 13:12:13;;;;;;;2.40;2.00;;;25.00;49.30;;;;;;5047475;28;20410;-91
2022/05/09 13:14:44;;;;;;;2.53;1.90;;;24.90;49.20;;;;;;5049317;28;20171;-92
2022/05/09 13:17:17;;;;;;;2.10;1.90;;;25.00;49.20;;;;;;5066839;28;20462;-91
2022/05/09 13:19:49;;;;;;;2.90;2.13;;;25.00;49.20;;;;;;5065097;28;20368;-91
2022/05/09 13:22:25;;;;;;;2.47;1.90;;;25.00;49.20;;;;;;5047569;28;20563;-92
2022/05/09 13:24:53;;;;;;;2.30;2.10;;;25.00;49.30;;;;;;5048156;28;20424;-93
2022/05/09 13:27:23;;;;;;;2.33;2.13;;;25.00;49.30;;;;;;5047604;28;20211;-93